Time;durP1;ratioP1;P1;durP2;ratioP2;P2;SDS_P1;SDS_P2;PMS_P1;PMS_P2;Temp;Humidity;BMP_temperature;BMP_pressure;BME280_temperature;BME280_humidity;BME280_pressure;Samples;Min_cycle;Max_cycle;Signal;HPM_P1;HPM_P2
2022/03/01 00:04:05;;;;;;;4.22;3.20;;;17.60;57.40;;;;;;10419593;28;20033;-57
2022/03/01 00:09:05;;;;;;;4.78;3.60;;;17.70;57.50;;;;;;10412211;28;20030;-58
2022/03/01 00:14:06;;;;;;;4.45;3.45;;;17.60;57.30;;;;;;10412218;28;20025;-58
2022/03/01 00:19:07;;;;;;;5.88;3.40;;;17.60;57.20;;;;;;10412335;28;20040;-58
2022/03/01 00:24:08;;;;;;;3.88;2.85;;;17.70;57.10;;;;;;10428356;28;20034;-57
2022/03/01 00:29:08;;;;;;;4.25;3.30;;;17.60;57.10;;;;;;10411852;28;20423;-58
2022/03/01 00:34:09;;;;;;;5.30;3.50;;;17.60;57.10;;;;;;10394776;28;20370;-58
2022/03/01 00:39:10;;;;;;;4.22;3.40;;;17.60;57.00;;;;;;10412874;28;20561;-57
2022/03/01 00:44:11;;;;;;;5.63;3.53;;;17.70;57.10;;;;;;10412923;28;20108;-57
2022/03/01 00:49:12;;;;;;;5.05;3.08;;;17.70;57.00;;;;;;10422351;28;20033;-58
2022/03/01 00:54:12;;;;;;;5.63;4.10;;;17.70;56.90;;;;;;10406029;28;20363;-57
2022/03/01 00:59:13;;;;;;;4.93;2.97;;;17.70;56.80;;;;;;10420522;28;20493;-58
2022/03/01 01:04:14;;;;;;;4.57;3.05;;;17.70;56.70;;;;;;10424340;28;20127;-57
2022/03/01 01:09:15;;;;;;;4.30;3.53;;;17.70;56.70;;;;;;10420072;28;20036;-58
2022/03/01 01:14:16;;;;;;;3.85;3.05;;;17.80;56.70;;;;;;10435864;28;20021;-58
2022/03/01 01:19:16;;;;;;;6.20;3.70;;;17.70;56.70;;;;;;10419085;28;20029;-58
2022/03/01 01:24:17;;;;;;;3.55;2.95;;;17.70;56.60;;;;;;10393745;28;20025;-57
2022/03/01 01:29:18;;;;;;;4.97;3.30;;;17.70;56.70;;;;;;10418561;28;20048;-59
2022/03/01 01:34:19;;;;;;;4.80;3.55;;;17.70;56.70;;;;;;10404016;28;20495;-58
2022/03/01 01:39:19;;;;;;;4.93;3.67;;;17.70;56.60;;;;;;10418414;28;20168;-57
2022/03/01 01:44:20;;;;;;;5.22;3.58;;;17.70;56.50;;;;;;10417568;28;20738;-59
2022/03/01 01:49:21;;;;;;;4.85;3.60;;;17.70;56.40;;;;;;10434511;28;20037;-59
2022/03/01 01:54:22;;;;;;;4.57;2.95;;;17.70;56.60;;;;;;10418780;28;20672;-58
2022/03/01 01:59:22;;;;;;;4.78;3.30;;;17.70;56.40;;;;;;10434174;28;20526;-57
2022/03/01 02:04:23;;;;;;;4.75;3.47;;;17.70;56.40;;;;;;10424814;28;20432;-58
2022/03/01 02:09:24;;;;;;;4.35;3.20;;;17.70;56.40;;;;;;10416923;28;20509;-58
2022/03/01 02:14:25;;;;;;;4.22;3.13;;;17.70;56.40;;;;;;10418046;28;20175;-58
2022/03/01 02:19:26;;;;;;;5.20;3.25;;;17.60;56.30;;;;;;10400036;28;20056;-59
2022/03/01 02:24:30;;;;;;;4.18;3.33;;;17.70;56.30;;;;;;10392247;28;20033;-57
2022/03/01 02:29:31;;;;;;;4.20;3.00;;;17.70;56.00;;;;;;10417518;28;20398;-58
2022/03/01 02:34:32;;;;;;;4.07;3.28;;;17.70;55.80;;;;;;10414048;28;20394;-58
2022/03/01 02:39:33;;;;;;;4.93;3.35;;;17.80;55.80;;;;;;10432472;28;20100;-58
2022/03/01 02:44:34;;;;;;;4.70;3.50;;;17.90;56.40;;;;;;10415590;28;20033;-58
2022/03/01 02:49:35;;;;;;;4.57;3.70;;;17.90;57.40;;;;;;10418848;28;20037;-58
2022/03/01 02:54:36;;;;;;;6.20;3.85;;;17.90;57.80;;;;;;10415388;28;20018;-58
2022/03/01 03:06:27;;;;;;;4.13;2.78;;;17.80;58.20;;;;;;10407175;28;20057;-58
2022/03/01 03:11:28;;;;;;;5.13;3.35;;;17.80;58.50;;;;;;10408587;28;20033;-58
2022/03/01 03:16:29;;;;;;;4.18;2.97;;;17.80;58.60;;;;;;10389760;28;20102;-58
2022/03/01 03:21:29;;;;;;;5.40;3.53;;;17.80;58.40;;;;;;10414245;28;20505;-58
2022/03/01 03:26:30;;;;;;;3.78;2.97;;;17.80;58.50;;;;;;10413719;28;20489;-57
2022/03/01 03:31:31;;;;;;;4.32;3.15;;;17.80;58.30;;;;;;10430628;28;20749;-57
2022/03/01 03:36:34;;;;;;;4.15;3.20;;;17.70;58.30;;;;;;10423326;28;20053;-57
2022/03/01 03:41:35;;;;;;;4.82;3.20;;;17.70;58.40;;;;;;10413537;28;20442;-58
2022/03/01 03:46:36;;;;;;;5.00;3.35;;;17.70;58.20;;;;;;10413280;28;20521;-57
2022/03/01 03:51:36;;;;;;;4.22;2.85;;;17.70;58.30;;;;;;10413114;28;20036;-57
2022/03/01 03:56:37;;;;;;;5.18;3.03;;;17.70;58.10;;;;;;10414190;28;20037;-57
2022/03/01 04:01:38;;;;;;;4.30;3.00;;;17.70;58.10;;;;;;10433007;28;20112;-58
2022/03/01 04:06:39;;;;;;;3.85;2.85;;;17.70;58.10;;;;;;10412696;28;20113;-57
2022/03/01 04:11:39;;;;;;;4.03;2.70;;;17.70;58.00;;;;;;10413614;28;20072;-58
2022/03/01 04:16:42;;;;;;;4.32;3.08;;;17.70;58.10;;;;;;10428784;28;20386;-58
2022/03/01 04:21:43;;;;;;;4.10;3.20;;;17.70;58.50;;;;;;10412226;28;20221;-57
2022/03/01 04:26:43;;;;;;;4.15;3.05;;;17.60;57.90;;;;;;10413273;28;20188;-58
2022/03/01 04:31:44;;;;;;;4.40;3.08;;;17.70;57.90;;;;;;10428273;28;20072;-57
2022/03/01 04:36:45;;;;;;;3.53;2.90;;;17.60;57.80;;;;;;10412742;28;20510;-58
2022/03/01 04:41:45;;;;;;;4.22;2.92;;;17.70;57.60;;;;;;10411606;28;20545;-58
2022/03/01 04:46:46;;;;;;;4.13;2.95;;;17.70;57.40;;;;;;10428072;28;20117;-57
2022/03/01 04:51:47;;;;;;;3.85;2.97;;;17.70;57.30;;;;;;10412815;28;20032;-57
2022/03/01 04:56:48;;;;;;;3.70;2.78;;;17.80;57.10;;;;;;10414788;28;20088;-57
2022/03/01 05:01:49;;;;;;;3.60;2.50;;;17.80;57.10;;;;;;10414918;28;20104;-57
2022/03/01 05:06:50;;;;;;;3.30;2.40;;;17.80;57.20;;;;;;10412184;28;20038;-57
2022/03/01 05:11:51;;;;;;;4.65;3.00;;;17.80;57.10;;;;;;10417589;28;20084;-58
2022/03/01 05:16:52;;;;;;;3.13;2.53;;;17.70;57.20;;;;;;10404875;28;20037;-57
2022/03/01 05:21:54;;;;;;;3.97;2.50;;;17.80;57.20;;;;;;10410263;28;20124;-57
2022/03/01 05:26:55;;;;;;;4.38;2.75;;;17.80;57.10;;;;;;10411160;28;20053;-57
2022/03/01 05:31:56;;;;;;;3.00;2.40;;;17.70;57.20;;;;;;10408751;28;20048;-57
2022/03/01 05:36:57;;;;;;;4.40;3.13;;;17.80;57.10;;;;;;10408995;28;20120;-58
2022/03/01 05:41:57;;;;;;;5.57;3.35;;;17.70;57.10;;;;;;10421163;28;20111;-57
2022/03/01 05:46:59;;;;;;;3.58;2.78;;;17.70;57.10;;;;;;10422789;28;20112;-58
2022/03/01 05:52:00;;;;;;;3.60;2.60;;;17.70;57.20;;;;;;10425325;28;20021;-58
2022/03/01 05:57:01;;;;;;;3.50;2.65;;;17.70;57.00;;;;;;10417006;28;20037;-58
2022/03/01 06:02:02;;;;;;;6.32;3.35;;;17.80;56.60;;;;;;10418901;28;20389;-58
2022/03/01 06:07:03;;;;;;;8.38;3.88;;;17.80;57.90;;;;;;10416308;28;20045;-57
2022/03/01 06:12:04;;;;;;;8.13;3.47;;;17.80;59.00;;;;;;10419281;28;20119;-57
2022/03/01 06:17:05;;;;;;;8.57;3.25;;;17.90;59.80;;;;;;10415618;28;20039;-58
2022/03/01 06:22:06;;;;;;;7.63;3.50;;;17.90;59.00;;;;;;10416575;28;20680;-58
2022/03/01 06:27:09;;;;;;;20.98;4.70;;;17.90;58.90;;;;;;10415295;28;20044;-58
2022/03/01 06:32:10;;;;;;;12.00;4.35;;;17.90;59.20;;;;;;10432665;28;20053;-58
2022/03/01 06:37:13;;;;;;;12.32;4.22;;;18.00;59.90;;;;;;10412158;28;20506;-57
2022/03/01 06:42:14;;;;;;;13.10;4.13;;;17.90;59.50;;;;;;10414123;28;20025;-57
2022/03/01 06:47:14;;;;;;;16.00;4.47;;;17.80;59.40;;;;;;10416003;28;20442;-58
2022/03/01 06:52:15;;;;;;;12.57;4.20;;;17.70;60.20;;;;;;10412873;28;20148;-57
2022/03/01 06:57:16;;;;;;;21.45;4.75;;;17.60;59.60;;;;;;10410474;28;20391;-56
2022/03/01 07:02:17;;;;;;;21.17;4.97;;;17.60;59.80;;;;;;10412347;28;20481;-56
2022/03/01 07:07:17;;;;;;;22.27;5.85;;;17.70;60.00;;;;;;10411315;28;20068;-57
2022/03/01 07:12:18;;;;;;;34.78;4.72;;;17.70;59.90;;;;;;10393203;28;20450;-58
2022/03/01 07:17:20;;;;;;;17.58;5.55;;;17.70;59.90;;;;;;10411613;28;20154;-57
2022/03/01 07:22:21;;;;;;;18.67;5.20;;;17.60;59.90;;;;;;10419560;28;20029;-56
2022/03/01 07:27:21;;;;;;;15.48;4.57;;;17.60;60.40;;;;;;10412941;28;20482;-57
2022/03/01 07:32:23;;;;;;;20.10;5.90;;;17.60;60.50;;;;;;10411565;28;20164;-57
2022/03/01 07:37:23;;;;;;;20.45;5.45;;;17.60;60.30;;;;;;10410942;28;20045;-57
2022/03/01 07:42:24;;;;;;;23.75;5.78;;;17.60;60.40;;;;;;10412790;28;20037;-61
2022/03/01 07:47:25;;;;;;;22.52;5.40;;;17.60;60.40;;;;;;10412155;28;20030;-57
2022/03/01 07:52:26;;;;;;;26.30;5.68;;;17.40;60.70;;;;;;10402015;28;20038;-58
2022/03/01 07:57:26;;;;;;;21.35;5.70;;;17.50;60.40;;;;;;10403164;28;20032;-57
2022/03/01 08:02:27;;;;;;;25.75;5.63;;;17.60;60.50;;;;;;10398186;28;20037;-56
2022/03/01 08:07:28;;;;;;;20.23;4.97;;;17.50;61.20;;;;;;10401351;28;20033;-57
2022/03/01 08:12:29;;;;;;;26.85;7.18;;;17.50;60.30;;;;;;10402578;28;20032;-56
2022/03/01 08:17:30;;;;;;;23.63;5.25;;;17.50;61.00;;;;;;10403167;28;20061;-57
2022/03/01 08:22:31;;;;;;;26.20;5.95;;;17.40;61.40;;;;;;10401705;28;20025;-57
2022/03/01 08:27:31;;;;;;;15.48;4.50;;;17.40;61.60;;;;;;10385889;28;20025;-57
2022/03/01 08:32:32;;;;;;;18.45;5.13;;;17.30;61.30;;;;;;10401734;28;20465;-57
2022/03/01 08:37:33;;;;;;;21.05;6.18;;;17.30;61.40;;;;;;10416259;28;20106;-56
2022/03/01 08:42:33;;;;;;;16.48;5.35;;;17.40;61.10;;;;;;10403268;28;20037;-56
2022/03/01 08:47:34;;;;;;;27.65;5.28;;;17.50;61.00;;;;;;10399697;28;20037;-57
2022/03/01 08:52:35;;;;;;;18.63;5.65;;;17.50;61.70;;;;;;10401092;28;20124;-57
2022/03/01 08:57:37;;;;;;;11.18;4.68;;;17.40;61.60;;;;;;10384525;28;20057;-57
2022/03/01 09:02:37;;;;;;;11.23;4.18;;;17.40;61.50;;;;;;10400938;28;20061;-57
2022/03/01 09:07:38;;;;;;;15.13;5.25;;;17.50;61.30;;;;;;10401148;28;20398;-56
2022/03/01 09:12:39;;;;;;;9.35;3.90;;;17.40;61.10;;;;;;10404367;28;20033;-57
2022/03/01 09:17:39;;;;;;;15.95;5.05;;;17.40;61.30;;;;;;10428547;28;20104;-57
2022/03/01 09:22:41;;;;;;;15.70;5.50;;;17.40;61.10;;;;;;10418676;28;20025;-56
2022/03/01 09:27:42;;;;;;;18.27;5.70;;;17.30;61.70;;;;;;10403217;28;20038;-56
2022/03/01 09:32:44;;;;;;;14.57;5.13;;;17.30;60.70;;;;;;10418691;28;20034;-57
2022/03/01 09:37:45;;;;;;;18.30;5.22;;;17.40;60.50;;;;;;10423681;28;20514;-57
2022/03/01 09:42:46;;;;;;;14.98;5.63;;;17.40;59.60;;;;;;10410597;28;20038;-56
2022/03/01 09:47:47;;;;;;;12.20;5.10;;;17.50;58.90;;;;;;10415062;28;20029;-57
2022/03/01 09:52:48;;;;;;;19.48;6.22;;;17.40;58.30;;;;;;10416845;28;20037;-57
2022/03/01 09:57:49;;;;;;;21.58;8.88;;;17.40;58.30;;;;;;10421383;28;20087;-57
2022/03/01 10:02:56;;;;;;;17.52;7.70;;;17.40;57.00;;;;;;10420733;28;20083;-56
2022/03/01 10:08:08;;;;;;;19.67;5.93;;;17.40;57.60;;;;;;10404309;28;20083;-56
2022/03/01 10:13:20;;;;;;;18.92;5.70;;;17.50;57.30;;;;;;10414661;28;20061;-57
2022/03/01 10:18:21;;;;;;;15.63;5.97;;;17.50;57.50;;;;;;10415181;28;20025;-56
2022/03/01 10:23:22;;;;;;;12.35;5.95;;;17.40;57.70;;;;;;10396676;28;20022;-58
2022/03/01 10:28:35;;;;;;;11.93;5.75;;;17.40;58.10;;;;;;10413758;28;20033;-56
2022/03/01 10:33:39;;;;;;;22.23;6.82;;;17.40;58.20;;;;;;10413666;28;20041;-56
2022/03/01 10:39:00;;;;;;;11.10;5.60;;;17.40;58.30;;;;;;10414326;28;20042;-56
2022/03/01 10:44:03;;;;;;;12.43;5.65;;;17.30;58.50;;;;;;10416955;28;20021;-56
2022/03/01 10:49:08;;;;;;;9.77;4.40;;;17.20;58.90;;;;;;10431864;28;20029;-56
2022/03/01 10:54:09;;;;;;;11.27;4.53;;;17.10;59.20;;;;;;10431810;28;20030;-56
2022/03/01 10:59:09;;;;;;;10.10;5.03;;;17.10;59.50;;;;;;10416294;28;20496;-57
2022/03/01 11:04:11;;;;;;;13.80;5.38;;;17.20;59.20;;;;;;10431192;28;20041;-56
2022/03/01 11:09:12;;;;;;;9.70;4.90;;;17.30;58.90;;;;;;10414488;28;20022;-56
2022/03/01 11:14:21;;;;;;;9.35;4.72;;;17.30;58.90;;;;;;10414568;28;20493;-55
2022/03/01 11:19:52;;;;;;;8.52;4.40;;;17.20;59.20;;;;;;10430111;28;20436;-56
2022/03/01 11:24:54;;;;;;;6.32;4.40;;;17.30;59.20;;;;;;10413843;28;20111;-56
2022/03/01 11:30:09;;;;;;;9.10;4.28;;;17.30;58.90;;;;;;10413727;28;20029;-56
2022/03/01 11:35:23;;;;;;;5.95;4.30;;;17.40;59.00;;;;;;10414745;28;20045;-56
2022/03/01 11:40:24;;;;;;;7.03;4.15;;;17.30;59.30;;;;;;10385970;28;20037;-56
2022/03/01 11:45:34;;;;;;;7.80;4.63;;;17.30;59.20;;;;;;10413277;28;20087;-56
2022/03/01 11:50:34;;;;;;;7.03;3.95;;;17.40;59.10;;;;;;10429416;28;20037;-56
2022/03/01 11:55:53;;;;;;;5.57;4.22;;;17.40;59.00;;;;;;10413500;28;20584;-56
2022/03/01 12:00:56;;;;;;;6.10;3.80;;;17.30;59.00;;;;;;10412495;28;20072;-56
2022/03/01 12:05:58;;;;;;;6.43;4.43;;;17.20;59.30;;;;;;10429030;28;20025;-57
2022/03/01 12:11:10;;;;;;;8.02;4.18;;;17.40;59.00;;;;;;10414246;28;20038;-57
2022/03/01 12:16:25;;;;;;;9.73;4.65;;;17.50;58.80;;;;;;10395367;28;20351;-57
2022/03/01 12:21:26;;;;;;;15.38;4.55;;;17.30;59.00;;;;;;10415757;28;20041;-54
2022/03/01 12:26:27;;;;;;;12.25;5.22;;;17.50;59.30;;;;;;10404846;28;20037;-55
2022/03/01 12:31:30;;;;;;;14.10;5.22;;;17.60;60.00;;;;;;10411878;28;20417;-55
2022/03/01 12:36:40;;;;;;;12.05;4.78;;;17.60;60.00;;;;;;10420916;28;20049;-55
2022/03/01 12:41:43;;;;;;;15.45;5.47;;;17.60;60.00;;;;;;10411598;28;20111;-55
2022/03/01 12:46:44;;;;;;;12.45;5.75;;;17.60;60.20;;;;;;10409374;28;20048;-54
2022/03/01 12:51:49;;;;;;;10.43;4.00;;;17.60;60.50;;;;;;10416740;28;20378;-56
2022/03/01 12:57:05;;;;;;;15.20;5.40;;;17.50;61.00;;;;;;10424539;28;20034;-55
2022/03/01 13:02:07;;;;;;;14.77;5.55;;;17.40;60.80;;;;;;10420289;28;20053;-56
2022/03/01 13:07:08;;;;;;;17.90;5.75;;;17.30;60.80;;;;;;10396022;28;20516;-54
2022/03/01 13:12:09;;;;;;;39.97;6.93;;;17.30;61.20;;;;;;10410546;28;20025;-55
2022/03/01 13:17:10;;;;;;;25.38;6.45;;;17.20;61.30;;;;;;10411078;28;20105;-54
2022/03/01 13:22:11;;;;;;;27.70;6.65;;;17.30;61.40;;;;;;10409544;28;20051;-54
2022/03/01 13:27:15;;;;;;;26.23;6.00;;;17.30;61.10;;;;;;10408676;28;20167;-54
2022/03/01 13:32:25;;;;;;;22.45;6.35;;;17.40;61.40;;;;;;10409605;28;20517;-53
2022/03/01 13:37:26;;;;;;;22.45;6.20;;;17.40;62.00;;;;;;10408434;28;20041;-54
2022/03/01 13:42:32;;;;;;;23.15;6.78;;;17.30;62.30;;;;;;10409816;28;20041;-55
2022/03/01 13:47:37;;;;;;;26.25;7.78;;;17.20;62.00;;;;;;10408390;28;20056;-53
2022/03/01 13:52:48;;;;;;;15.38;5.55;;;17.10;62.70;;;;;;10409141;28;20444;-54
2022/03/01 13:57:49;;;;;;;17.60;6.43;;;17.20;63.00;;;;;;10407703;28;20126;-50
2022/03/01 14:03:11;;;;;;;20.70;6.07;;;17.30;62.70;;;;;;10407652;28;20095;-54
2022/03/01 14:08:16;;;;;;;15.63;5.75;;;17.20;62.20;;;;;;10407538;28;21681;-53
2022/03/01 14:13:37;;;;;;;13.70;6.40;;;17.10;61.90;;;;;;10391055;28;20048;-54
2022/03/01 14:18:40;;;;;;;14.98;6.25;;;17.10;61.50;;;;;;10408152;28;20512;-56
2022/03/01 14:23:43;;;;;;;21.42;8.43;;;17.10;61.30;;;;;;10406865;28;20052;-56
2022/03/01 14:28:54;;;;;;;16.48;6.88;;;17.00;60.90;;;;;;10407637;28;20049;-56
2022/03/01 14:33:55;;;;;;;12.02;6.22;;;17.10;60.60;;;;;;10415706;28;20034;-54
2022/03/01 14:38:56;;;;;;;12.40;6.05;;;17.10;59.90;;;;;;10415189;28;20112;-55
2022/03/01 14:43:58;;;;;;;13.90;6.43;;;17.10;59.80;;;;;;10409433;28;20040;-53
2022/03/01 14:48:59;;;;;;;15.52;6.30;;;17.10;59.40;;;;;;10407109;28;20025;-54
2022/03/01 14:54:00;;;;;;;17.33;7.50;;;17.30;59.40;;;;;;10408506;28;20065;-54
2022/03/01 14:59:01;;;;;;;15.50;6.57;;;17.50;58.80;;;;;;10417986;28;20029;-55
2022/03/01 15:04:02;;;;;;;18.67;7.30;;;17.50;58.50;;;;;;10420184;28;20029;-56
2022/03/01 15:09:04;;;;;;;19.05;6.70;;;17.50;58.60;;;;;;10400189;28;20053;-55
2022/03/01 15:14:05;;;;;;;13.80;6.18;;;17.30;58.70;;;;;;10405612;28;20045;-53
2022/03/01 15:19:06;;;;;;;19.73;6.93;;;17.30;58.40;;;;;;10406594;28;20041;-54
2022/03/01 15:24:11;;;;;;;20.85;7.40;;;17.50;57.90;;;;;;10387921;28;20088;-56
2022/03/01 15:29:12;;;;;;;21.75;7.38;;;17.50;57.90;;;;;;10405639;28;20037;-56
2022/03/01 15:34:12;;;;;;;27.20;8.05;;;17.40;58.20;;;;;;10403761;28;20512;-55
2022/03/01 15:39:14;;;;;;;29.33;7.57;;;17.40;58.80;;;;;;10404206;28;20068;-56
2022/03/01 15:44:15;;;;;;;17.73;6.30;;;17.70;59.20;;;;;;10410769;28;20033;-53
2022/03/01 15:49:16;;;;;;;27.73;7.80;;;17.60;59.10;;;;;;10403213;28;20163;-53
2022/03/01 15:54:16;;;;;;;26.33;7.03;;;17.40;60.50;;;;;;10404190;28;20028;-52
2022/03/01 15:59:17;;;;;;;30.60;7.30;;;17.30;61.30;;;;;;10405143;28;20032;-53
2022/03/01 16:04:19;;;;;;;28.17;5.75;;;17.20;61.20;;;;;;10405661;28;20021;-56
2022/03/01 16:09:19;;;;;;;30.17;8.35;;;17.20;60.50;;;;;;10402517;28;20338;-55
2022/03/01 16:14:20;;;;;;;19.85;6.53;;;17.10;61.50;;;;;;10403008;28;20040;-55
2022/03/01 16:19:21;;;;;;;22.85;7.50;;;17.10;60.60;;;;;;10403081;28;20033;-55
2022/03/01 16:24:22;;;;;;;23.00;8.02;;;17.10;60.10;;;;;;10402981;28;20033;-55
2022/03/01 16:29:23;;;;;;;31.15;8.50;;;17.20;60.30;;;;;;10403972;28;20017;-53
2022/03/01 16:34:24;;;;;;;20.58;7.78;;;17.30;60.20;;;;;;10401919;28;20030;-54
2022/03/01 16:39:26;;;;;;;24.17;11.55;;;17.40;59.50;;;;;;10402584;28;20532;-54
2022/03/01 16:44:27;;;;;;;33.33;14.68;;;17.40;58.80;;;;;;10402724;28;20072;-56
2022/03/01 16:49:27;;;;;;;29.52;15.93;;;17.60;57.90;;;;;;10402397;28;20033;-57
2022/03/01 16:54:31;;;;;;;27.13;14.10;;;17.70;57.60;;;;;;10411220;28;20476;-57
2022/03/01 16:59:32;;;;;;;29.35;13.57;;;17.70;56.80;;;;;;10391008;28;20034;-57
2022/03/01 17:04:33;;;;;;;22.17;11.95;;;17.60;56.60;;;;;;10410445;28;20124;-56
2022/03/01 17:09:34;;;;;;;19.17;10.77;;;17.90;57.30;;;;;;10410866;28;20065;-56
2022/03/01 17:14:35;;;;;;;19.15;10.30;;;17.90;58.20;;;;;;10411084;28;20116;-56
2022/03/01 17:19:35;;;;;;;20.08;8.95;;;18.00;59.00;;;;;;10410596;28;20021;-55
2022/03/01 17:24:36;;;;;;;21.02;9.45;;;18.10;58.70;;;;;;10410876;28;20069;-55
2022/03/01 17:29:37;;;;;;;21.40;9.35;;;18.10;59.10;;;;;;10412167;28;20401;-57
2022/03/01 17:34:38;;;;;;;21.70;9.68;;;18.00;59.60;;;;;;10419964;28;20045;-56
2022/03/01 17:39:39;;;;;;;23.60;9.38;;;17.90;59.30;;;;;;10416683;28;20037;-57
2022/03/01 17:44:40;;;;;;;18.42;8.85;;;18.00;59.10;;;;;;10421367;28;20152;-57
2022/03/01 17:49:40;;;;;;;12.40;7.63;;;18.00;59.80;;;;;;10418409;28;20037;-56
2022/03/01 17:54:41;;;;;;;13.93;8.05;;;17.70;59.60;;;;;;10433424;28;20064;-56
2022/03/01 17:59:42;;;;;;;17.52;8.52;;;17.70;59.80;;;;;;10418292;28;20035;-55
2022/03/01 18:04:44;;;;;;;16.85;7.55;;;17.60;59.70;;;;;;10417838;28;20030;-55
2022/03/01 18:09:45;;;;;;;13.98;8.25;;;17.60;59.90;;;;;;10416523;28;20044;-57
2022/03/01 18:14:46;;;;;;;15.93;7.70;;;17.50;60.00;;;;;;10424672;28;20041;-56
2022/03/01 18:19:47;;;;;;;14.32;7.28;;;17.40;60.00;;;;;;10433621;28;20127;-55
2022/03/01 18:24:48;;;;;;;15.82;7.57;;;17.50;60.20;;;;;;10415936;28;20080;-56
2022/03/01 18:29:51;;;;;;;14.27;6.90;;;17.40;60.70;;;;;;10398808;28;20382;-56
2022/03/01 18:34:51;;;;;;;12.30;6.82;;;17.40;60.50;;;;;;10410203;28;20073;-56
2022/03/01 18:39:52;;;;;;;9.50;6.32;;;17.40;60.60;;;;;;10414271;28;20037;-56
2022/03/01 18:44:54;;;;;;;14.82;7.90;;;17.40;60.30;;;;;;10416302;28;20038;-56
2022/03/01 18:49:55;;;;;;;14.98;6.63;;;17.40;60.10;;;;;;10413593;28;20678;-56
2022/03/01 18:54:55;;;;;;;12.25;6.47;;;17.50;59.70;;;;;;10418112;28;20078;-56
2022/03/01 18:59:56;;;;;;;11.27;6.78;;;17.50;59.40;;;;;;10420085;28;20069;-56
2022/03/01 19:04:57;;;;;;;12.35;7.15;;;17.50;59.20;;;;;;10416276;28;20474;-57
2022/03/01 19:09:57;;;;;;;10.77;6.68;;;17.60;58.80;;;;;;10414375;28;20566;-58
2022/03/01 19:14:59;;;;;;;9.98;5.90;;;17.50;58.70;;;;;;10411941;28;20029;-58
2022/03/01 19:20:00;;;;;;;10.55;6.15;;;17.70;58.30;;;;;;10409833;28;20370;-45
2022/03/01 19:25:03;;;;;;;11.43;6.05;;;17.60;58.50;;;;;;10413024;28;20026;-46
2022/03/01 19:30:07;;;;;;;9.95;5.22;;;17.70;58.30;;;;;;10407217;28;20579;-54
2022/03/01 19:35:10;;;;;;;11.07;6.28;;;17.80;58.20;;;;;;10399541;28;20128;-52
2022/03/01 19:40:12;;;;;;;8.85;5.97;;;17.80;58.30;;;;;;10402328;28;20108;-53
2022/03/01 19:45:14;;;;;;;8.68;6.15;;;17.80;58.50;;;;;;10397545;28;20792;-52
2022/03/01 19:50:21;;;;;;;8.68;6.28;;;17.80;58.40;;;;;;10395152;28;20044;-52
2022/03/01 19:55:23;;;;;;;8.98;6.32;;;17.80;58.50;;;;;;10410031;28;20021;-52
2022/03/01 20:00:28;;;;;;;11.73;5.93;;;17.80;58.50;;;;;;10411230;28;20082;-51
2022/03/01 20:05:40;;;;;;;7.53;5.75;;;17.90;58.40;;;;;;10411673;28;20056;-54
2022/03/01 20:10:41;;;;;;;9.80;5.95;;;17.90;58.50;;;;;;10407971;28;20601;-53
2022/03/01 20:15:42;;;;;;;7.30;5.40;;;17.80;58.80;;;;;;10408721;28;20038;-53
2022/03/01 20:20:43;;;;;;;10.20;5.65;;;17.70;59.00;;;;;;10411623;28;20073;-54
2022/03/01 20:25:44;;;;;;;8.27;4.78;;;17.60;59.30;;;;;;10412030;28;20048;-52
2022/03/01 20:30:45;;;;;;;8.73;5.00;;;17.60;59.70;;;;;;10412017;28;20037;-51
2022/03/01 20:35:46;;;;;;;8.55;4.95;;;17.60;59.70;;;;;;10412629;28;20034;-53
2022/03/01 20:40:47;;;;;;;10.10;5.10;;;17.50;59.80;;;;;;10411332;28;20033;-54
2022/03/01 20:45:49;;;;;;;9.70;5.45;;;17.50;60.10;;;;;;10408191;28;20057;-54
2022/03/01 20:50:50;;;;;;;6.03;4.30;;;17.40;60.00;;;;;;10408185;28;20486;-53
2022/03/01 20:55:56;;;;;;;5.95;4.40;;;17.50;59.70;;;;;;10413966;28;20185;-52
2022/03/01 21:00:57;;;;;;;6.25;4.80;;;17.60;59.30;;;;;;10408594;28;20107;-53
2022/03/01 21:05:58;;;;;;;7.85;4.40;;;17.70;59.10;;;;;;10410319;28;20029;-53
2022/03/01 21:10:58;;;;;;;7.22;4.57;;;17.80;58.90;;;;;;10414207;28;20056;-53
2022/03/01 21:15:59;;;;;;;6.90;4.70;;;17.80;58.80;;;;;;10418249;28;20108;-54
2022/03/01 21:21:03;;;;;;;6.63;4.93;;;17.80;58.80;;;;;;10435694;28;20057;-53
2022/03/01 21:26:07;;;;;;;4.85;3.97;;;17.80;58.70;;;;;;10435486;28;20022;-53
2022/03/01 21:31:08;;;;;;;10.90;5.28;;;17.80;58.60;;;;;;10418710;28;20060;-54
2022/03/01 21:36:09;;;;;;;5.22;3.97;;;17.80;58.60;;;;;;10418227;28;20048;-53
2022/03/01 21:41:10;;;;;;;5.18;4.63;;;17.80;58.40;;;;;;10419619;28;20039;-54
2022/03/01 21:46:10;;;;;;;6.97;4.63;;;17.80;58.40;;;;;;10419325;28;20029;-54
2022/03/01 21:51:11;;;;;;;4.60;4.20;;;17.70;58.50;;;;;;10418019;28;20031;-52
2022/03/01 21:56:12;;;;;;;6.18;4.55;;;17.80;58.40;;;;;;10423464;28;20080;-53
2022/03/01 22:01:13;;;;;;;6.55;4.35;;;17.70;58.30;;;;;;10427439;28;20436;-53
2022/03/01 22:06:14;;;;;;;5.70;3.80;;;17.80;58.40;;;;;;10418673;28;20429;-54
2022/03/01 22:11:14;;;;;;;6.43;4.78;;;17.80;58.20;;;;;;10433948;28;20074;-51
2022/03/01 22:16:15;;;;;;;5.78;4.40;;;17.80;58.10;;;;;;10407097;28;20101;-54
2022/03/01 22:21:16;;;;;;;5.88;4.25;;;17.80;58.00;;;;;;10416669;28;20079;-53
2022/03/01 22:26:17;;;;;;;4.47;3.95;;;17.90;57.90;;;;;;10416559;28;20497;-54
2022/03/01 22:31:18;;;;;;;6.18;4.30;;;17.80;57.90;;;;;;10417619;28;20462;-54
2022/03/01 22:36:18;;;;;;;6.78;3.90;;;17.80;58.00;;;;;;10415414;28;20049;-54
2022/03/01 22:41:19;;;;;;;5.55;3.97;;;17.80;57.90;;;;;;10417346;28;20091;-54
2022/03/01 22:46:20;;;;;;;4.55;3.90;;;17.80;57.80;;;;;;10417265;28;20065;-53
2022/03/01 22:51:21;;;;;;;6.55;4.57;;;17.90;57.70;;;;;;10415779;28;20041;-52
2022/03/01 22:56:22;;;;;;;5.70;4.00;;;17.90;57.60;;;;;;10418788;28;20390;-52
2022/03/01 23:01:24;;;;;;;7.15;4.40;;;17.90;57.70;;;;;;10415481;28;20034;-53
2022/03/01 23:06:29;;;;;;;6.15;4.07;;;17.80;57.60;;;;;;10415078;28;20115;-54
2022/03/01 23:11:30;;;;;;;6.05;4.43;;;17.80;57.60;;;;;;10414690;28;20032;-55
2022/03/01 23:16:31;;;;;;;5.18;4.15;;;17.80;57.60;;;;;;10416025;28;20542;-53
2022/03/01 23:21:31;;;;;;;6.35;4.40;;;17.80;57.50;;;;;;10431203;28;20057;-54
2022/03/01 23:26:32;;;;;;;6.70;4.40;;;17.90;57.50;;;;;;10415642;28;20037;-52
2022/03/01 23:31:33;;;;;;;5.18;4.00;;;17.90;57.50;;;;;;10413983;28;20124;-53
2022/03/01 23:36:34;;;;;;;6.20;3.90;;;17.80;57.40;;;;;;10413665;28;20502;-53
2022/03/01 23:41:35;;;;;;;5.68;3.75;;;17.90;57.40;;;;;;10430436;28;20075;-52
2022/03/01 23:46:35;;;;;;;5.05;3.97;;;17.90;57.40;;;;;;10430059;28;20037;-54
2022/03/01 23:51:36;;;;;;;5.30;4.32;;;17.90;57.40;;;;;;10397299;28;20029;-53
2022/03/01 23:56:37;;;;;;;6.10;4.35;;;17.90;57.30;;;;;;10416977;28;20053;-54
